sensor_id;sensor_type;location;lat;lon;timestamp;P1;durP1;ratioP1;P2;durP2;ratioP2
16346;SDS011;8283;48.504;13.734;2022-12-07T00:02:09;4.68;;;2.95;;
16346;SDS011;8283;48.504;13.734;2022-12-07T00:04:55;4.57;;;3.67;;
16346;SDS011;8283;48.504;13.734;2022-12-07T00:07:40;4.53;;;3.60;;
16346;SDS011;8283;48.504;13.734;2022-12-07T00:10:24;3.70;;;3.17;;
16346;SDS011;8283;48.504;13.734;2022-12-07T00:13:08;5.28;;;3.55;;
16346;SDS011;8283;48.504;13.734;2022-12-07T00:15:53;4.10;;;3.00;;
16346;SDS011;8283;48.504;13.734;2022-12-07T00:18:38;3.63;;;3.28;;
16346;SDS011;8283;48.504;13.734;2022-12-07T00:21:27;3.97;;;2.72;;
16346;SDS011;8283;48.504;13.734;2022-12-07T00:24:12;3.30;;;2.80;;
16346;SDS011;8283;48.504;13.734;2022-12-07T00:26:56;4.35;;;2.85;;
16346;SDS011;8283;48.504;13.734;2022-12-07T00:29:41;2.83;;;2.53;;
16346;SDS011;8283;48.504;13.734;2022-12-07T00:32:25;4.35;;;2.42;;
16346;SDS011;8283;48.504;13.734;2022-12-07T00:35:09;2.97;;;2.33;;
16346;SDS011;8283;48.504;13.734;2022-12-07T00:37:54;2.88;;;2.38;;
16346;SDS011;8283;48.504;13.734;2022-12-07T00:40:38;2.40;;;2.20;;
16346;SDS011;8283;48.504;13.734;2022-12-07T00:43:22;2.53;;;2.08;;
16346;SDS011;8283;48.504;13.734;2022-12-07T00:46:06;3.97;;;2.20;;
16346;SDS011;8283;48.504;13.734;2022-12-07T00:48:51;2.53;;;2.10;;
16346;SDS011;8283;48.504;13.734;2022-12-07T00:51:40;2.22;;;2.03;;
16346;SDS011;8283;48.504;13.734;2022-12-07T00:54:24;3.20;;;2.17;;
16346;SDS011;8283;48.504;13.734;2022-12-07T00:57:08;2.42;;;2.00;;
16346;SDS011;8283;48.504;13.734;2022-12-07T00:59:53;2.88;;;2.20;;
16346;SDS011;8283;48.504;13.734;2022-12-07T01:02:41;2.63;;;2.15;;
16346;SDS011;8283;48.504;13.734;2022-12-07T01:05:25;3.00;;;2.30;;
16346;SDS011;8283;48.504;13.734;2022-12-07T01:08:10;2.92;;;2.47;;
16346;SDS011;8283;48.504;13.734;2022-12-07T01:11:02;2.88;;;2.30;;
16346;SDS011;8283;48.504;13.734;2022-12-07T01:13:49;2.95;;;2.00;;
16346;SDS011;8283;48.504;13.734;2022-12-07T01:16:35;2.58;;;2.20;;
16346;SDS011;8283;48.504;13.734;2022-12-07T01:19:19;2.30;;;1.83;;
16346;SDS011;8283;48.504;13.734;2022-12-07T01:22:04;3.03;;;2.35;;
16346;SDS011;8283;48.504;13.734;2022-12-07T01:24:48;2.78;;;2.25;;
16346;SDS011;8283;48.504;13.734;2022-12-07T01:27:33;2.33;;;2.03;;
16346;SDS011;8283;48.504;13.734;2022-12-07T01:30:18;3.28;;;2.45;;
16346;SDS011;8283;48.504;13.734;2022-12-07T01:33:02;2.22;;;1.80;;
16346;SDS011;8283;48.504;13.734;2022-12-07T01:35:47;2.33;;;1.92;;
16346;SDS011;8283;48.504;13.734;2022-12-07T01:38:31;2.65;;;2.33;;
16346;SDS011;8283;48.504;13.734;2022-12-07T01:41:16;2.78;;;2.47;;
16346;SDS011;8283;48.504;13.734;2022-12-07T01:46:55;2.35;;;1.98;;
16346;SDS011;8283;48.504;13.734;2022-12-07T01:49:46;3.08;;;2.50;;
16346;SDS011;8283;48.504;13.734;2022-12-07T01:52:32;3.03;;;2.72;;
16346;SDS011;8283;48.504;13.734;2022-12-07T01:55:19;2.83;;;2.53;;
16346;SDS011;8283;48.504;13.734;2022-12-07T01:58:03;3.38;;;2.30;;
16346;SDS011;8283;48.504;13.734;2022-12-07T02:00:48;2.95;;;2.47;;
16346;SDS011;8283;48.504;13.734;2022-12-07T02:03:36;3.15;;;2.60;;
16346;SDS011;8283;48.504;13.734;2022-12-07T02:06:24;5.05;;;3.90;;
16346;SDS011;8283;48.504;13.734;2022-12-07T02:09:10;4.85;;;3.30;;
16346;SDS011;8283;48.504;13.734;2022-12-07T02:11:55;3.30;;;2.97;;
16346;SDS011;8283;48.504;13.734;2022-12-07T02:14:41;3.65;;;3.00;;
16346;SDS011;8283;48.504;13.734;2022-12-07T02:17:31;2.80;;;2.28;;
16346;SDS011;8283;48.504;13.734;2022-12-07T02:30:16;2.92;;;2.55;;
16346;SDS011;8283;48.504;13.734;2022-12-07T02:33:08;4.60;;;2.90;;
16346;SDS011;8283;48.504;13.734;2022-12-07T02:36:20;2.53;;;2.33;;
16346;SDS011;8283;48.504;13.734;2022-12-07T02:39:18;3.25;;;2.63;;
16346;SDS011;8283;48.504;13.734;2022-12-07T02:42:30;3.00;;;2.50;;
16346;SDS011;8283;48.504;13.734;2022-12-07T02:45:17;2.63;;;2.40;;
16346;SDS011;8283;48.504;13.734;2022-12-07T02:48:07;2.80;;;2.25;;
16346;SDS011;8283;48.504;13.734;2022-12-07T02:50:53;3.08;;;2.78;;
16346;SDS011;8283;48.504;13.734;2022-12-07T02:53:42;3.42;;;2.38;;
16346;SDS011;8283;48.504;13.734;2022-12-07T02:56:43;2.67;;;2.38;;
16346;SDS011;8283;48.504;13.734;2022-12-07T03:12:01;2.78;;;2.28;;
16346;SDS011;8283;48.504;13.734;2022-12-07T03:14:59;3.00;;;2.45;;
16346;SDS011;8283;48.504;13.734;2022-12-07T03:17:50;3.00;;;2.33;;
16346;SDS011;8283;48.504;13.734;2022-12-07T03:20:35;4.32;;;2.97;;
16346;SDS011;8283;48.504;13.734;2022-12-07T03:23:23;4.78;;;3.08;;
16346;SDS011;8283;48.504;13.734;2022-12-07T03:26:09;2.92;;;2.58;;
16346;SDS011;8283;48.504;13.734;2022-12-07T03:28:58;2.88;;;2.30;;
16346;SDS011;8283;48.504;13.734;2022-12-07T03:31:48;3.60;;;3.08;;
16346;SDS011;8283;48.504;13.734;2022-12-07T03:35:14;3.38;;;2.67;;
16346;SDS011;8283;48.504;13.734;2022-12-07T03:37:56;2.90;;;2.60;;
16346;SDS011;8283;48.504;13.734;2022-12-07T03:41:00;4.18;;;3.15;;
16346;SDS011;8283;48.504;13.734;2022-12-07T03:43:50;3.53;;;2.60;;
16346;SDS011;8283;48.504;13.734;2022-12-07T03:49:45;3.92;;;2.75;;
16346;SDS011;8283;48.504;13.734;2022-12-07T03:52:42;3.25;;;2.90;;
16346;SDS011;8283;48.504;13.734;2022-12-07T03:55:32;3.75;;;2.88;;
16346;SDS011;8283;48.504;13.734;2022-12-07T03:58:20;3.35;;;2.63;;
16346;SDS011;8283;48.504;13.734;2022-12-07T04:01:06;3.50;;;2.95;;
16346;SDS011;8283;48.504;13.734;2022-12-07T04:03:51;2.92;;;2.40;;
16346;SDS011;8283;48.504;13.734;2022-12-07T04:06:35;2.90;;;2.10;;
16346;SDS011;8283;48.504;13.734;2022-12-07T04:09:19;2.78;;;2.40;;
16346;SDS011;8283;48.504;13.734;2022-12-07T04:12:04;3.38;;;2.70;;
16346;SDS011;8283;48.504;13.734;2022-12-07T04:14:48;3.38;;;2.58;;
16346;SDS011;8283;48.504;13.734;2022-12-07T04:17:32;2.67;;;2.28;;
16346;SDS011;8283;48.504;13.734;2022-12-07T04:20:17;3.28;;;2.30;;
16346;SDS011;8283;48.504;13.734;2022-12-07T04:23:01;3.95;;;2.50;;
16346;SDS011;8283;48.504;13.734;2022-12-07T04:25:47;3.35;;;2.53;;
16346;SDS011;8283;48.504;13.734;2022-12-07T04:28:32;2.80;;;2.45;;
16346;SDS011;8283;48.504;13.734;2022-12-07T04:31:17;3.22;;;2.40;;
16346;SDS011;8283;48.504;13.734;2022-12-07T04:34:02;2.70;;;2.30;;
16346;SDS011;8283;48.504;13.734;2022-12-07T04:36:47;2.90;;;2.15;;
16346;SDS011;8283;48.504;13.734;2022-12-07T04:39:32;3.50;;;2.55;;
16346;SDS011;8283;48.504;13.734;2022-12-07T04:42:17;3.03;;;2.72;;
16346;SDS011;8283;48.504;13.734;2022-12-07T04:45:01;3.55;;;2.65;;
16346;SDS011;8283;48.504;13.734;2022-12-07T04:47:46;2.85;;;2.45;;
16346;SDS011;8283;48.504;13.734;2022-12-07T04:50:30;4.90;;;2.53;;
16346;SDS011;8283;48.504;13.734;2022-12-07T04:53:14;3.25;;;2.72;;
16346;SDS011;8283;48.504;13.734;2022-12-07T04:55:59;2.95;;;2.33;;
16346;SDS011;8283;48.504;13.734;2022-12-07T04:58:45;2.83;;;2.33;;
16346;SDS011;8283;48.504;13.734;2022-12-07T05:01:30;3.45;;;2.38;;
16346;SDS011;8283;48.504;13.734;2022-12-07T05:04:15;2.67;;;2.25;;
16346;SDS011;8283;48.504;13.734;2022-12-07T05:06:59;3.60;;;2.60;;
16346;SDS011;8283;48.504;13.734;2022-12-07T05:09:44;2.38;;;2.17;;
16346;SDS011;8283;48.504;13.734;2022-12-07T05:12:28;3.88;;;2.78;;
16346;SDS011;8283;48.504;13.734;2022-12-07T05:15:13;2.85;;;2.05;;
16346;SDS011;8283;48.504;13.734;2022-12-07T05:17:58;2.92;;;2.63;;
16346;SDS011;8283;48.504;13.734;2022-12-07T05:20:44;3.50;;;3.13;;
16346;SDS011;8283;48.504;13.734;2022-12-07T05:23:28;3.13;;;2.35;;
16346;SDS011;8283;48.504;13.734;2022-12-07T05:26:13;3.13;;;2.45;;
16346;SDS011;8283;48.504;13.734;2022-12-07T05:28:57;4.18;;;2.70;;
16346;SDS011;8283;48.504;13.734;2022-12-07T05:31:43;3.95;;;3.10;;
16346;SDS011;8283;48.504;13.734;2022-12-07T05:34:27;4.50;;;2.95;;
16346;SDS011;8283;48.504;13.734;2022-12-07T05:37:12;4.60;;;3.58;;
16346;SDS011;8283;48.504;13.734;2022-12-07T05:39:56;3.70;;;3.28;;
16346;SDS011;8283;48.504;13.734;2022-12-07T05:42:41;3.97;;;3.10;;
16346;SDS011;8283;48.504;13.734;2022-12-07T05:45:26;3.80;;;3.00;;
16346;SDS011;8283;48.504;13.734;2022-12-07T05:48:10;3.03;;;2.55;;
16346;SDS011;8283;48.504;13.734;2022-12-07T05:50:54;4.30;;;3.35;;
16346;SDS011;8283;48.504;13.734;2022-12-07T05:53:39;4.03;;;3.60;;
16346;SDS011;8283;48.504;13.734;2022-12-07T05:56:24;4.53;;;3.20;;
16346;SDS011;8283;48.504;13.734;2022-12-07T05:59:10;4.65;;;3.20;;
16346;SDS011;8283;48.504;13.734;2022-12-07T06:02:08;5.07;;;3.40;;
16346;SDS011;8283;48.504;13.734;2022-12-07T06:04:54;4.97;;;3.78;;
16346;SDS011;8283;48.504;13.734;2022-12-07T06:07:39;4.72;;;4.00;;
16346;SDS011;8283;48.504;13.734;2022-12-07T06:10:24;4.03;;;3.40;;
16346;SDS011;8283;48.504;13.734;2022-12-07T06:13:08;4.57;;;3.70;;
16346;SDS011;8283;48.504;13.734;2022-12-07T06:15:52;3.50;;;3.20;;
16346;SDS011;8283;48.504;13.734;2022-12-07T06:18:37;3.47;;;2.75;;
16346;SDS011;8283;48.504;13.734;2022-12-07T06:21:21;3.88;;;3.10;;
16346;SDS011;8283;48.504;13.734;2022-12-07T06:24:06;5.47;;;3.70;;
16346;SDS011;8283;48.504;13.734;2022-12-07T06:26:51;3.92;;;3.50;;
16346;SDS011;8283;48.504;13.734;2022-12-07T06:29:35;4.28;;;3.60;;
16346;SDS011;8283;48.504;13.734;2022-12-07T06:32:20;5.13;;;4.07;;
16346;SDS011;8283;48.504;13.734;2022-12-07T06:35:05;3.88;;;3.40;;
16346;SDS011;8283;48.504;13.734;2022-12-07T06:37:49;5.15;;;3.90;;
16346;SDS011;8283;48.504;13.734;2022-12-07T06:40:34;4.07;;;3.13;;
16346;SDS011;8283;48.504;13.734;2022-12-07T06:43:18;4.40;;;3.13;;
16346;SDS011;8283;48.504;13.734;2022-12-07T06:46:02;4.10;;;3.17;;
16346;SDS011;8283;48.504;13.734;2022-12-07T06:48:46;3.88;;;3.47;;
16346;SDS011;8283;48.504;13.734;2022-12-07T06:51:31;4.28;;;3.38;;
16346;SDS011;8283;48.504;13.734;2022-12-07T06:54:16;3.42;;;2.97;;
16346;SDS011;8283;48.504;13.734;2022-12-07T06:57:01;3.33;;;2.97;;
16346;SDS011;8283;48.504;13.734;2022-12-07T06:59:45;3.85;;;3.10;;
16346;SDS011;8283;48.504;13.734;2022-12-07T07:02:30;3.28;;;2.72;;
16346;SDS011;8283;48.504;13.734;2022-12-07T07:05:15;3.85;;;3.08;;
16346;SDS011;8283;48.504;13.734;2022-12-07T07:08:00;3.40;;;2.83;;
16346;SDS011;8283;48.504;13.734;2022-12-07T07:10:45;3.63;;;2.88;;
16346;SDS011;8283;48.504;13.734;2022-12-07T07:13:29;3.70;;;2.90;;
16346;SDS011;8283;48.504;13.734;2022-12-07T07:16:14;3.25;;;2.95;;
16346;SDS011;8283;48.504;13.734;2022-12-07T07:18:59;3.08;;;2.72;;
16346;SDS011;8283;48.504;13.734;2022-12-07T07:21:44;3.47;;;2.83;;
16346;SDS011;8283;48.504;13.734;2022-12-07T07:24:28;4.10;;;2.90;;
16346;SDS011;8283;48.504;13.734;2022-12-07T07:27:12;3.05;;;2.38;;
16346;SDS011;8283;48.504;13.734;2022-12-07T07:29:57;3.72;;;3.13;;
16346;SDS011;8283;48.504;13.734;2022-12-07T07:32:41;3.38;;;2.80;;
16346;SDS011;8283;48.504;13.734;2022-12-07T07:35:26;3.80;;;3.28;;
16346;SDS011;8283;48.504;13.734;2022-12-07T07:38:11;3.92;;;2.70;;
16346;SDS011;8283;48.504;13.734;2022-12-07T07:40:56;3.25;;;2.90;;
16346;SDS011;8283;48.504;13.734;2022-12-07T07:43:41;3.33;;;3.03;;
16346;SDS011;8283;48.504;13.734;2022-12-07T07:46:25;3.88;;;3.03;;
16346;SDS011;8283;48.504;13.734;2022-12-07T07:49:10;3.42;;;2.88;;
16346;SDS011;8283;48.504;13.734;2022-12-07T07:51:55;3.58;;;3.25;;
16346;SDS011;8283;48.504;13.734;2022-12-07T07:54:40;3.72;;;3.30;;
16346;SDS011;8283;48.504;13.734;2022-12-07T07:57:24;4.18;;;3.22;;
16346;SDS011;8283;48.504;13.734;2022-12-07T08:00:13;4.05;;;3.35;;
16346;SDS011;8283;48.504;13.734;2022-12-07T08:02:58;4.63;;;3.58;;
16346;SDS011;8283;48.504;13.734;2022-12-07T08:05:43;4.90;;;3.65;;
16346;SDS011;8283;48.504;13.734;2022-12-07T08:08:27;4.65;;;4.00;;
16346;SDS011;8283;48.504;13.734;2022-12-07T08:11:12;4.82;;;3.97;;
16346;SDS011;8283;48.504;13.734;2022-12-07T08:13:57;5.38;;;4.85;;
16346;SDS011;8283;48.504;13.734;2022-12-07T08:16:41;5.70;;;4.18;;
16346;SDS011;8283;48.504;13.734;2022-12-07T08:19:26;5.93;;;4.72;;
16346;SDS011;8283;48.504;13.734;2022-12-07T08:22:10;4.20;;;3.80;;
16346;SDS011;8283;48.504;13.734;2022-12-07T08:24:54;5.82;;;5.00;;
16346;SDS011;8283;48.504;13.734;2022-12-07T08:27:38;5.68;;;4.65;;
16346;SDS011;8283;48.504;13.734;2022-12-07T08:30:23;5.75;;;4.47;;
16346;SDS011;8283;48.504;13.734;2022-12-07T08:33:08;5.03;;;4.53;;
16346;SDS011;8283;48.504;13.734;2022-12-07T08:35:54;5.43;;;4.68;;
16346;SDS011;8283;48.504;13.734;2022-12-07T08:38:39;7.20;;;5.32;;
16346;SDS011;8283;48.504;13.734;2022-12-07T08:41:24;7.20;;;5.05;;
16346;SDS011;8283;48.504;13.734;2022-12-07T08:44:09;7.28;;;5.90;;
16346;SDS011;8283;48.504;13.734;2022-12-07T08:46:57;7.10;;;5.53;;
16346;SDS011;8283;48.504;13.734;2022-12-07T08:49:45;9.10;;;6.72;;
16346;SDS011;8283;48.504;13.734;2022-12-07T08:52:33;8.48;;;5.70;;
16346;SDS011;8283;48.504;13.734;2022-12-07T08:55:19;6.60;;;5.25;;
16346;SDS011;8283;48.504;13.734;2022-12-07T08:58:04;9.63;;;6.50;;
16346;SDS011;8283;48.504;13.734;2022-12-07T09:00:49;9.15;;;7.28;;
16346;SDS011;8283;48.504;13.734;2022-12-07T09:03:34;7.22;;;6.35;;
16346;SDS011;8283;48.504;13.734;2022-12-07T09:06:18;7.80;;;6.03;;
16346;SDS011;8283;48.504;13.734;2022-12-07T09:09:02;10.15;;;7.25;;
16346;SDS011;8283;48.504;13.734;2022-12-07T09:11:47;9.00;;;6.10;;
16346;SDS011;8283;48.504;13.734;2022-12-07T09:14:32;7.70;;;5.93;;
16346;SDS011;8283;48.504;13.734;2022-12-07T09:17:16;9.95;;;6.10;;
16346;SDS011;8283;48.504;13.734;2022-12-07T09:20:02;6.60;;;5.25;;
16346;SDS011;8283;48.504;13.734;2022-12-07T09:22:47;7.93;;;5.95;;
16346;SDS011;8283;48.504;13.734;2022-12-07T09:25:32;6.78;;;5.30;;
16346;SDS011;8283;48.504;13.734;2022-12-07T09:28:17;5.90;;;5.20;;
16346;SDS011;8283;48.504;13.734;2022-12-07T09:31:02;9.45;;;6.25;;
16346;SDS011;8283;48.504;13.734;2022-12-07T09:33:52;6.32;;;4.97;;
16346;SDS011;8283;48.504;13.734;2022-12-07T09:36:40;5.07;;;4.32;;
16346;SDS011;8283;48.504;13.734;2022-12-07T09:39:26;7.28;;;5.07;;
16346;SDS011;8283;48.504;13.734;2022-12-07T09:42:11;5.90;;;4.68;;
16346;SDS011;8283;48.504;13.734;2022-12-07T09:45:12;6.22;;;4.80;;
16346;SDS011;8283;48.504;13.734;2022-12-07T09:48:09;6.63;;;5.25;;
16346;SDS011;8283;48.504;13.734;2022-12-07T09:53:58;5.22;;;4.13;;
16346;SDS011;8283;48.504;13.734;2022-12-07T09:56:43;5.90;;;4.75;;
16346;SDS011;8283;48.504;13.734;2022-12-07T09:59:28;6.65;;;4.47;;
16346;SDS011;8283;48.504;13.734;2022-12-07T10:02:24;6.95;;;4.82;;
16346;SDS011;8283;48.504;13.734;2022-12-07T10:05:35;5.95;;;4.70;;
16346;SDS011;8283;48.504;13.734;2022-12-07T10:08:22;6.43;;;4.57;;
16346;SDS011;8283;48.504;13.734;2022-12-07T10:11:08;6.15;;;4.88;;
16346;SDS011;8283;48.504;13.734;2022-12-07T10:13:54;4.93;;;4.40;;
16346;SDS011;8283;48.504;13.734;2022-12-07T10:16:40;8.07;;;4.95;;
16346;SDS011;8283;48.504;13.734;2022-12-07T10:19:30;6.03;;;4.68;;
16346;SDS011;8283;48.504;13.734;2022-12-07T10:22:17;5.95;;;5.00;;
16346;SDS011;8283;48.504;13.734;2022-12-07T10:25:08;6.18;;;5.05;;
16346;SDS011;8283;48.504;13.734;2022-12-07T10:30:54;5.85;;;5.15;;
16346;SDS011;8283;48.504;13.734;2022-12-07T10:33:50;6.38;;;5.07;;
16346;SDS011;8283;48.504;13.734;2022-12-07T10:36:37;6.05;;;5.10;;
16346;SDS011;8283;48.504;13.734;2022-12-07T10:39:23;6.10;;;4.93;;
16346;SDS011;8283;48.504;13.734;2022-12-07T10:42:25;6.10;;;4.68;;
16346;SDS011;8283;48.504;13.734;2022-12-07T10:51:04;6.85;;;4.78;;
16346;SDS011;8283;48.504;13.734;2022-12-07T10:56:57;4.85;;;4.25;;
16346;SDS011;8283;48.504;13.734;2022-12-07T11:06:27;5.25;;;4.50;;
16346;SDS011;8283;48.504;13.734;2022-12-07T11:12:42;7.13;;;4.85;;
16346;SDS011;8283;48.504;13.734;2022-12-07T11:16:29;5.28;;;4.68;;
16346;SDS011;8283;48.504;13.734;2022-12-07T11:22:14;6.68;;;5.43;;
16346;SDS011;8283;48.504;13.734;2022-12-07T11:25:13;5.65;;;4.78;;
16346;SDS011;8283;48.504;13.734;2022-12-07T11:28:05;5.38;;;4.43;;
16346;SDS011;8283;48.504;13.734;2022-12-07T11:34:18;4.70;;;4.03;;
16346;SDS011;8283;48.504;13.734;2022-12-07T11:37:25;6.32;;;5.28;;
16346;SDS011;8283;48.504;13.734;2022-12-07T11:40:20;5.75;;;4.72;;
16346;SDS011;8283;48.504;13.734;2022-12-07T11:43:22;6.50;;;4.63;;
16346;SDS011;8283;48.504;13.734;2022-12-07T11:46:15;6.15;;;5.07;;
16346;SDS011;8283;48.504;13.734;2022-12-07T11:49:02;5.53;;;4.63;;
16346;SDS011;8283;48.504;13.734;2022-12-07T11:51:54;5.80;;;4.75;;
16346;SDS011;8283;48.504;13.734;2022-12-07T11:54:43;5.72;;;4.43;;
16346;SDS011;8283;48.504;13.734;2022-12-07T11:57:33;6.38;;;4.78;;
16346;SDS011;8283;48.504;13.734;2022-12-07T12:00:24;5.72;;;4.97;;
16346;SDS011;8283;48.504;13.734;2022-12-07T12:03:09;5.60;;;4.90;;
16346;SDS011;8283;48.504;13.734;2022-12-07T12:08:46;5.32;;;4.55;;
16346;SDS011;8283;48.504;13.734;2022-12-07T12:18:36;6.03;;;4.85;;
16346;SDS011;8283;48.504;13.734;2022-12-07T12:21:33;7.53;;;5.03;;
16346;SDS011;8283;48.504;13.734;2022-12-07T12:24:22;6.10;;;4.93;;
16346;SDS011;8283;48.504;13.734;2022-12-07T12:27:15;5.75;;;4.80;;
16346;SDS011;8283;48.504;13.734;2022-12-07T12:30:23;6.30;;;4.78;;
16346;SDS011;8283;48.504;13.734;2022-12-07T12:39:17;6.38;;;5.00;;
16346;SDS011;8283;48.504;13.734;2022-12-07T12:42:05;5.75;;;4.95;;
16346;SDS011;8283;48.504;13.734;2022-12-07T12:45:03;6.78;;;5.20;;
16346;SDS011;8283;48.504;13.734;2022-12-07T12:48:27;6.57;;;4.95;;
16346;SDS011;8283;48.504;13.734;2022-12-07T12:54:21;5.88;;;4.72;;
16346;SDS011;8283;48.504;13.734;2022-12-07T12:57:23;5.20;;;4.20;;
16346;SDS011;8283;48.504;13.734;2022-12-07T13:03:01;5.60;;;4.95;;
16346;SDS011;8283;48.504;13.734;2022-12-07T13:05:46;5.80;;;4.68;;
16346;SDS011;8283;48.504;13.734;2022-12-07T13:08:30;6.57;;;4.93;;
16346;SDS011;8283;48.504;13.734;2022-12-07T13:11:16;6.03;;;4.68;;
16346;SDS011;8283;48.504;13.734;2022-12-07T13:20:40;5.95;;;5.18;;
16346;SDS011;8283;48.504;13.734;2022-12-07T13:32:17;5.47;;;4.53;;
16346;SDS011;8283;48.504;13.734;2022-12-07T13:38:32;5.03;;;4.22;;
16346;SDS011;8283;48.504;13.734;2022-12-07T13:41:20;5.25;;;4.45;;
16346;SDS011;8283;48.504;13.734;2022-12-07T13:44:10;8.43;;;5.55;;
16346;SDS011;8283;48.504;13.734;2022-12-07T13:49:51;5.63;;;4.43;;
16346;SDS011;8283;48.504;13.734;2022-12-07T13:52:39;5.75;;;4.85;;
16346;SDS011;8283;48.504;13.734;2022-12-07T13:55:28;7.13;;;5.45;;
16346;SDS011;8283;48.504;13.734;2022-12-07T13:58:13;6.70;;;5.20;;
16346;SDS011;8283;48.504;13.734;2022-12-07T14:00:57;7.07;;;5.35;;
16346;SDS011;8283;48.504;13.734;2022-12-07T14:03:43;6.15;;;5.32;;
16346;SDS011;8283;48.504;13.734;2022-12-07T14:06:27;6.07;;;5.22;;
16346;SDS011;8283;48.504;13.734;2022-12-07T14:09:17;5.53;;;4.13;;
16346;SDS011;8283;48.504;13.734;2022-12-07T14:12:06;6.80;;;5.07;;
16346;SDS011;8283;48.504;13.734;2022-12-07T14:14:50;7.20;;;5.55;;
16346;SDS011;8283;48.504;13.734;2022-12-07T14:17:36;7.10;;;5.90;;
16346;SDS011;8283;48.504;13.734;2022-12-07T14:20:36;6.43;;;4.78;;
16346;SDS011;8283;48.504;13.734;2022-12-07T14:23:23;6.55;;;5.10;;
16346;SDS011;8283;48.504;13.734;2022-12-07T14:26:15;6.63;;;5.40;;
16346;SDS011;8283;48.504;13.734;2022-12-07T14:32:24;6.35;;;4.53;;
16346;SDS011;8283;48.504;13.734;2022-12-07T14:35:14;5.38;;;4.63;;
16346;SDS011;8283;48.504;13.734;2022-12-07T14:38:00;14.27;;;8.88;;
16346;SDS011;8283;48.504;13.734;2022-12-07T14:40:45;8.35;;;5.22;;
16346;SDS011;8283;48.504;13.734;2022-12-07T14:43:30;6.10;;;4.65;;
16346;SDS011;8283;48.504;13.734;2022-12-07T14:46:14;6.45;;;4.30;;
16346;SDS011;8283;48.504;13.734;2022-12-07T14:48:58;6.68;;;4.30;;
16346;SDS011;8283;48.504;13.734;2022-12-07T14:51:43;6.25;;;4.07;;
16346;SDS011;8283;48.504;13.734;2022-12-07T14:54:30;5.10;;;4.45;;
16346;SDS011;8283;48.504;13.734;2022-12-07T14:57:16;5.45;;;4.25;;
16346;SDS011;8283;48.504;13.734;2022-12-07T15:00:00;5.90;;;4.57;;
16346;SDS011;8283;48.504;13.734;2022-12-07T15:02:45;5.53;;;4.43;;
16346;SDS011;8283;48.504;13.734;2022-12-07T15:05:30;6.93;;;5.45;;
16346;SDS011;8283;48.504;13.734;2022-12-07T15:08:15;8.20;;;5.55;;
16346;SDS011;8283;48.504;13.734;2022-12-07T15:10:59;8.02;;;5.03;;
16346;SDS011;8283;48.504;13.734;2022-12-07T15:13:43;6.05;;;4.28;;
16346;SDS011;8283;48.504;13.734;2022-12-07T15:16:46;4.85;;;4.25;;
16346;SDS011;8283;48.504;13.734;2022-12-07T15:19:31;4.93;;;4.20;;
16346;SDS011;8283;48.504;13.734;2022-12-07T15:22:15;4.65;;;4.00;;
16346;SDS011;8283;48.504;13.734;2022-12-07T15:25:00;4.40;;;3.67;;
16346;SDS011;8283;48.504;13.734;2022-12-07T15:27:45;4.72;;;3.65;;
16346;SDS011;8283;48.504;13.734;2022-12-07T15:30:29;5.53;;;3.58;;
16346;SDS011;8283;48.504;13.734;2022-12-07T15:33:13;5.10;;;3.85;;
16346;SDS011;8283;48.504;13.734;2022-12-07T15:35:58;5.82;;;4.38;;
16346;SDS011;8283;48.504;13.734;2022-12-07T15:38:43;4.47;;;3.72;;
16346;SDS011;8283;48.504;13.734;2022-12-07T15:41:27;4.03;;;3.53;;
16346;SDS011;8283;48.504;13.734;2022-12-07T15:44:12;4.18;;;3.67;;
16346;SDS011;8283;48.504;13.734;2022-12-07T15:47:16;4.72;;;3.65;;
16346;SDS011;8283;48.504;13.734;2022-12-07T15:50:00;4.78;;;3.72;;
16346;SDS011;8283;48.504;13.734;2022-12-07T15:52:44;3.83;;;3.42;;
16346;SDS011;8283;48.504;13.734;2022-12-07T15:55:29;5.75;;;3.90;;
16346;SDS011;8283;48.504;13.734;2022-12-07T15:58:13;4.95;;;3.75;;
16346;SDS011;8283;48.504;13.734;2022-12-07T16:00:58;4.50;;;3.30;;
16346;SDS011;8283;48.504;13.734;2022-12-07T16:03:42;4.03;;;3.30;;
16346;SDS011;8283;48.504;13.734;2022-12-07T16:06:27;6.47;;;3.80;;
16346;SDS011;8283;48.504;13.734;2022-12-07T16:09:11;4.80;;;3.88;;
16346;SDS011;8283;48.504;13.734;2022-12-07T16:11:56;3.95;;;3.20;;
16346;SDS011;8283;48.504;13.734;2022-12-07T16:14:41;4.00;;;2.95;;
16346;SDS011;8283;48.504;13.734;2022-12-07T16:17:26;4.38;;;3.28;;
16346;SDS011;8283;48.504;13.734;2022-12-07T16:20:10;4.90;;;4.10;;
16346;SDS011;8283;48.504;13.734;2022-12-07T16:22:54;4.22;;;3.53;;
16346;SDS011;8283;48.504;13.734;2022-12-07T16:25:38;4.70;;;3.42;;
16346;SDS011;8283;48.504;13.734;2022-12-07T16:28:22;4.47;;;3.50;;
16346;SDS011;8283;48.504;13.734;2022-12-07T16:31:08;4.03;;;3.10;;
16346;SDS011;8283;48.504;13.734;2022-12-07T16:33:58;5.82;;;3.78;;
16346;SDS011;8283;48.504;13.734;2022-12-07T16:36:43;3.53;;;2.92;;
16346;SDS011;8283;48.504;13.734;2022-12-07T16:39:27;8.63;;;3.70;;
16346;SDS011;8283;48.504;13.734;2022-12-07T16:42:11;5.85;;;3.70;;
16346;SDS011;8283;48.504;13.734;2022-12-07T16:44:56;6.90;;;4.22;;
16346;SDS011;8283;48.504;13.734;2022-12-07T16:47:40;5.30;;;3.47;;
16346;SDS011;8283;48.504;13.734;2022-12-07T16:50:25;4.38;;;3.50;;
16346;SDS011;8283;48.504;13.734;2022-12-07T16:53:10;5.45;;;4.07;;
16346;SDS011;8283;48.504;13.734;2022-12-07T16:55:55;6.68;;;5.40;;
16346;SDS011;8283;48.504;13.734;2022-12-07T16:58:39;6.88;;;3.90;;
16346;SDS011;8283;48.504;13.734;2022-12-07T17:01:24;7.18;;;4.85;;
16346;SDS011;8283;48.504;13.734;2022-12-07T17:04:11;6.30;;;4.80;;
16346;SDS011;8283;48.504;13.734;2022-12-07T17:06:56;5.63;;;4.18;;
16346;SDS011;8283;48.504;13.734;2022-12-07T17:09:41;6.28;;;4.53;;
16346;SDS011;8283;48.504;13.734;2022-12-07T17:12:25;6.07;;;4.50;;
16346;SDS011;8283;48.504;13.734;2022-12-07T17:15:09;4.43;;;3.22;;
16346;SDS011;8283;48.504;13.734;2022-12-07T17:18:06;5.95;;;3.85;;
16346;SDS011;8283;48.504;13.734;2022-12-07T17:20:50;6.15;;;4.22;;
16346;SDS011;8283;48.504;13.734;2022-12-07T17:23:35;4.93;;;3.92;;
16346;SDS011;8283;48.504;13.734;2022-12-07T17:26:23;4.88;;;3.83;;
16346;SDS011;8283;48.504;13.734;2022-12-07T17:29:10;6.47;;;3.65;;
16346;SDS011;8283;48.504;13.734;2022-12-07T17:31:56;6.70;;;4.10;;
16346;SDS011;8283;48.504;13.734;2022-12-07T17:34:40;6.28;;;4.80;;
16346;SDS011;8283;48.504;13.734;2022-12-07T17:37:24;4.95;;;3.78;;
16346;SDS011;8283;48.504;13.734;2022-12-07T17:40:08;5.18;;;3.92;;
16346;SDS011;8283;48.504;13.734;2022-12-07T17:42:53;4.60;;;3.47;;
16346;SDS011;8283;48.504;13.734;2022-12-07T17:45:37;5.03;;;3.65;;
16346;SDS011;8283;48.504;13.734;2022-12-07T17:48:21;4.35;;;3.47;;
16346;SDS011;8283;48.504;13.734;2022-12-07T17:51:06;4.95;;;3.53;;
16346;SDS011;8283;48.504;13.734;2022-12-07T17:54:09;4.78;;;4.03;;
16346;SDS011;8283;48.504;13.734;2022-12-07T17:56:54;8.55;;;6.28;;
16346;SDS011;8283;48.504;13.734;2022-12-07T17:59:38;7.85;;;4.30;;
16346;SDS011;8283;48.504;13.734;2022-12-07T18:02:23;5.35;;;4.15;;
16346;SDS011;8283;48.504;13.734;2022-12-07T18:05:07;4.95;;;3.78;;
16346;SDS011;8283;48.504;13.734;2022-12-07T18:07:52;8.35;;;5.38;;
16346;SDS011;8283;48.504;13.734;2022-12-07T18:10:38;6.85;;;5.20;;
16346;SDS011;8283;48.504;13.734;2022-12-07T18:13:22;6.10;;;4.40;;
16346;SDS011;8283;48.504;13.734;2022-12-07T18:16:20;5.35;;;4.28;;
16346;SDS011;8283;48.504;13.734;2022-12-07T18:19:07;8.48;;;4.72;;
16346;SDS011;8283;48.504;13.734;2022-12-07T18:21:52;7.10;;;4.72;;
16346;SDS011;8283;48.504;13.734;2022-12-07T18:24:36;8.20;;;4.88;;
16346;SDS011;8283;48.504;13.734;2022-12-07T18:27:21;9.23;;;6.00;;
16346;SDS011;8283;48.504;13.734;2022-12-07T18:30:05;7.47;;;4.95;;
16346;SDS011;8283;48.504;13.734;2022-12-07T18:32:51;7.38;;;5.15;;
16346;SDS011;8283;48.504;13.734;2022-12-07T18:35:35;7.90;;;5.78;;